Data for 09/03/2010

Time Sea-Level Adjusted Pressure Absolute Pressure Temperature Relative Humidity Dew Point   
(mb) (inHg) (mb) (inHg) (C) (F) (%) (C) (F)
00:05 1026 30.3 855 25.25 9.7 49.4 50 -0.2 31.7
00:10 1026 30.3 855 25.25 9.6 49.2 51 0.1 32.1
00:15 1026 30.3 855 25.25 9.7 49.4 51 0.1 32.2
00:20 1026 30.3 856 25.28 10.1 50.1 49 -0.2 31.6
00:25 1026 30.3 856 25.28 10.3 50.6 52 0.9 33.6
00:30 1026 30.3 856 25.28 9.7 49.5 57 1.7 35.1
00:35 1026 30.3 856 25.28 9.2 48.6 60 2 35.5
00:40 1026 30.3 856 25.28 9.5 49.1 59 1.9 35.5
00:45 1026 30.3 856 25.28 9.7 49.5 58 1.9 35.4
00:50 1026 30.3 856 25.28 9.7 49.5 56 1.4 34.5
00:55 1026 30.3 856 25.28 10 50.1 52 0.8 33.4
01:00 1026 30.3 856 25.28 10.4 50.7 51 0.7 33.3
01:05 1026 30.3 856 25.28 9.9 49.7 60 2.4 36.4
01:10 1026 30.3 856 25.28 8.8 47.8 62 2 35.6
01:15 1026 30.3 856 25.28 8.5 47.3 63 1.9 35.4
01:20 1026 30.3 856 25.28 8.5 47.3 60 1.2 34.1
01:25 1026 30.3 856 25.28 8.9 48 61 1.8 35.2
01:30 1026 30.3 856 25.28 8.8 47.9 60 1.6 34.9
01:35 1026 30.3 856 25.28 8.5 47.2 63 1.8 35.2
01:40 1026 30.3 856 25.28 8.3 47 61 1.4 34.5
01:45 1026 30.3 856 25.28 8.5 47.3 62 1.6 34.8
01:50 1026 30.3 856 25.28 8.2 46.7 61 1.1 33.9
01:55 1026 30.3 856 25.28 8.4 47.2 59 1 33.8
02:00 1026 30.3 856 25.28 8.8 47.8 58 1 33.9
02:05 1026 30.3 856 25.28 8.8 47.8 61 1.7 35.1
02:10 1026 30.3 856 25.28 8.3 46.9 64 1.9 35.4
02:15 1026 30.3 856 25.28 8.1 46.5 65 1.8 35.3
02:20 1026 30.3 856 25.28 8 46.4 64 1.8 35.2
02:25 1026 30.3 856 25.28 8.1 46.5 62 1.4 34.4
02:30 1026 30.3 856 25.28 8.5 47.3 61 1.4 34.6
02:35 1026 30.3 855 25.25 8.5 47.3 61 1.4 34.5
02:40 1026 30.3 855 25.25 8.6 47.4 61 1.4 34.5
02:45 1026 30.3 855 25.25 8.7 47.7 60 1.4 34.5
02:50 1026 30.3 855 25.25 8.9 48 60 1.7 35
02:55 1026 30.3 855 25.25 8.8 47.8 58 1 33.9
03:00 1026 30.3 855 25.25 8.9 48 59 1.3 34.4
03:05 1026 30.3 855 25.25 8.5 47.2 62 1.5 34.8
03:10 1026 30.3 855 25.25 8.2 46.8 62 1.4 34.5
03:15 1026 30.3 855 25.25 8.3 46.9 63 1.6 34.8
03:20 1026 30.3 855 25.25 8.4 47.1 63 1.7 35.1
03:25 1026 30.3 855 25.25 8.5 47.3 61 1.5 34.8
03:30 1026 30.3 855 25.25 8.4 47.1 62 1.6 34.8
03:35 1026 30.3 855 25.25 7.7 45.8 66 1.7 35.1
03:40 1026 30.3 855 25.25 7.6 45.7 63 1 33.8
03:45 1026 30.3 855 25.25 7.7 45.9 64 1.3 34.4
03:50 1026 30.3 855 25.25 8.1 46.5 64 1.6 34.9
03:55 1026 30.3 855 25.25 7.9 46.2 65 1.7 35
04:00 1026 30.3 855 25.25 8 46.3 63 1.4 34.5
04:05 1026 30.3 855 25.25 7.7 45.8 65 1.6 34.8
04:10 1026 30.3 855 25.25 7.3 45.1 65 1.2 34.2
04:15 1026 30.3 855 25.25 7.7 45.9 64 1.3 34.4
04:20 1026 30.3 855 25.25 7.9 46.2 62 1.2 34.1
04:25 1026 30.3 855 25.25 7.9 46.2 63 1.3 34.4
04:30 1026 30.3 855 25.25 8 46.3 62 1.2 34.2
04:35 1026 30.3 855 25.25 8 46.3 62 1.2 34.2
04:40 1026 30.3 855 25.25 7.6 45.6 62 0.9 33.6
04:45 1026 30.3 855 25.25 7.5 45.4 63 0.9 33.6
04:50 1026 30.3 855 25.25 7.1 44.8 64 0.7 33.3
04:55 1026 30.3 855 25.25 7 44.7 63 0.4 32.8
05:00 1026 30.3 855 25.25 6.8 44.3 65 0.7 33.3
05:05 1026 30.3 855 25.25 6.5 43.8 66 0.7 33.2
05:10 1026 30.3 855 25.25 6.2 43.2 67 0.6 33.1
05:15 1026 30.3 855 25.25 6.2 43.1 67 0.5 32.9
05:20 1026 30.3 856 25.28 6.4 43.5 65 0.4 32.7
05:25 1026 30.3 855 25.25 7.1 44.8 61 0.2 32.4
05:30 1026 30.3 856 25.28 7.1 44.7 63 0.5 32.9
05:35 1026 30.3 856 25.28 6.8 44.3 63 0.4 32.7
05:40 1026 30.3 855 25.25 6.5 43.7 66 0.6 33.1
05:45 1026 30.3 855 25.25 6 42.8 67 0.4 32.6
05:50 1026 30.3 855 25.25 6.1 43 67 0.5 32.9
05:55 1026 30.3 855 25.25 5.8 42.5 69 0.6 33
06:00 1026 30.3 855 25.25 5.6 42.1 69 0.4 32.7
06:05 1026 30.3 855 25.25 5.5 41.9 70 0.4 32.8
06:10 1026 30.3 855 25.25 5.6 42 70 0.5 33
06:15 1026 30.3 855 25.25 5.6 42.1 71 0.8 33.4
06:20 1026 30.3 855 25.25 5.9 42.6 69 0.6 33.1
06:25 1026 30.3 855 25.25 6 42.9 69 0.8 33.5
06:30 1026 30.3 855 25.25 6 42.7 69 0.7 33.3
06:35 1026 30.3 855 25.25 6 42.8 69 0.8 33.4
06:40 1026 30.3 855 25.25 6.1 42.9 68 0.7 33.2
06:45 1026 30.3 855 25.25 6 42.8 68 0.6 33.2
06:50 1026 30.3 855 25.25 5.9 42.6 68 0.4 32.8
06:55 1026 30.3 855 25.25 6 42.8 67 0.4 32.7
07:00 1026 30.3 855 25.25 6.2 43.2 66 0.3 32.6
07:05 1026 30.3 855 25.25 6.7 44 63 0.2 32.4
07:10 1026 30.3 855 25.25 7.2 45 62 0.4 32.7
07:15 1026 30.3 855 25.25 7.6 45.7 61 0.7 33.2
07:20 1026 30.3 855 25.25 7.5 45.4 61 0.5 32.9
07:25 1026 30.3 855 25.25 7.5 45.5 61 0.6 33
07:30 1026 30.3 855 25.25 7.7 45.9 61 0.8 33.4
07:35 1026 30.3 855 25.25 7.7 45.9 62 0.8 33.5
07:40 1026 30.3 855 25.25 7.7 45.8 62 0.8 33.4
07:45 1026 30.3 855 25.25 7.7 45.8 62 0.8 33.4
07:50 1026 30.3 855 25.25 7.7 45.9 61 0.6 33.1
07:55 1026 30.3 855 25.25 8.1 46.5 60 0.7 33.2
08:00 1026 30.3 855 25.25 8.5 47.2 59 0.9 33.6
08:05 1026 30.3 855 25.25 8.4 47.2 58 0.6 33.2
08:10 1026 30.3 855 25.25 8.7 47.7 56 0.6 33
08:15 1026 30.3 855 25.25 9.2 48.6 56 1 33.7
08:20 1026 30.3 855 25.25 9.6 49.2 52 0.2 32.3
08:25 1026 30.3 855 25.25 10.1 50.2 50 0.3 32.5
08:30 1026 30.3 855 25.25 10.4 50.7 49 0.2 32.3
08:35 1026 30.3 855 25.25 10.8 51.5 47 0.1 32.2
08:40 1026 30.3 855 25.25 11.6 53 45 0.2 32.4
08:45 1026 30.3 855 25.25 12.6 54.6 44 0.9 33.6
08:50 1026 30.3 855 25.25 12.6 54.6 48 1.9 35.4
08:55 1026 30.3 855 25.25 13 55.5 47 2.1 35.7
09:00 1026 30.3 855 25.25 13.3 55.9 48 2.4 36.4
09:05 1026 30.3 855 25.25 13.6 56.6 46 2.3 36.2
09:10 1026 30.3 855 25.25 13.3 55.9 48 2.5 36.4
09:15 1026 30.3 855 25.25 13.1 55.5 46 1.9 35.4
09:20 1026 30.3 855 25.25 12.8 55 48 1.9 35.5
09:25 1026 30.3 855 25.25 12.9 55.3 47 2 35.7
09:30 1025 30.27 855 25.25 13.6 56.5 46 2.2 35.9
09:35 1025 30.27 855 25.25 13.5 56.3 44 1.6 34.9
09:40 1025 30.27 855 25.25 14 57.2 39 0.5 32.9
09:45 1025 30.27 855 25.25 13.7 56.6 42 1 33.7
09:50 1025 30.27 855 25.25 14 57.3 41 1 33.8
09:55 1025 30.27 854 25.22 14.8 58.7 39 1.2 34.1
10:00 1025 30.27 855 25.25 14.8 58.6 40 1.5 34.7
10:05 1025 30.27 855 25.25 15.7 60.3 37 1.3 34.4
10:10 1025 30.27 855 25.25 16.2 61.1 36 1 33.8
10:15 1025 30.27 854 25.22 15.4 59.8 40 2 35.6
10:20 1025 30.27 854 25.22 14.7 58.5 40 1.2 34.2
10:25 1025 30.27 854 25.22 15.5 59.9 38 1.3 34.3
10:30 1025 30.27 854 25.22 16.3 61.4 36 1.2 34.2
10:35 1025 30.27 854 25.22 15.5 59.9 39 1.9 35.4
10:40 1025 30.27 854 25.22 14.8 58.7 41 1.8 35.3
10:45 1025 30.27 854 25.22 15.2 59.4 39 1.4 34.6
10:50 1025 30.27 854 25.22 16.3 61.3 36 1.2 34.2
10:55 1025 30.27 854 25.22 15.2 59.3 40 1.8 35.3
11:00 1025 30.27 854 25.22 15.2 59.3 39 1.4 34.4
11:05 1025 30.27 854 25.22 15.6 60 40 2.2 36
11:10 1025 30.27 854 25.22 16.1 60.9 39 2.1 35.8
11:15 1025 30.27 854 25.22 16.4 61.5 37 1.8 35.2
11:20 1025 30.27 854 25.22 16 60.7 38 1.9 35.5
11:25 1025 30.27 854 25.22 16.6 61.9 38 2.5 36.4
11:30 1025 30.27 854 25.22 17 62.5 37 2.5 36.4
11:35 1025 30.27 854 25.22 17 62.6 37 2.4 36.3
11:40 1025 30.27 854 25.22 16.7 62 38 2.6 36.6
11:45 1024 30.24 854 25.22 16.7 62 39 2.7 36.9
11:50 1024 30.24 854 25.22 17.9 64.3 36 2.9 37.2
11:55 1024 30.24 854 25.22 17.9 64.2 35 2.2 35.9
12:00 1024 30.24 854 25.22 18.4 65.1 36 3.3 38
12:05 1024 30.24 854 25.22 18 64.4 36 3 37.5
12:10 1024 30.24 854 25.22 18.5 65.4 36 3.4 38.1
12:15 1024 30.24 854 25.22 18.6 65.4 36 3.3 38
12:20 1024 30.24 853 25.19 18.1 64.5 38 3.5 38.4
12:25 1024 30.24 853 25.19 19.4 66.9 33 2.8 37.1
12:30 1024 30.24 853 25.19 20 67.9 34 3.9 39.1
12:35 1024 30.24 853 25.19 19.5 67.2 36 4.2 39.5
12:40 1024 30.24 853 25.19 19.5 67.2 37 4.7 40.5
12:45 1024 30.24 853 25.19 18.9 66 35 3.4 38.1
12:50 1024 30.24 853 25.19 18.7 65.7 37 3.8 38.8
12:55 1024 30.24 853 25.19 19.1 66.4 35 3.5 38.2
13:00 1024 30.24 853 25.19 19 66.2 35 3.3 37.9
13:05 1024 30.24 853 25.19 19.6 67.4 34 3.3 38
13:10 1024 30.24 853 25.19 19.7 67.4 35 3.9 39
13:15 1024 30.24 853 25.19 19.5 67.1 33 3.1 37.6
13:20 1024 30.24 853 25.19 20 68.1 32 3.2 37.7
13:25 1024 30.24 853 25.19 20.6 69 32 3.5 38.3
13:30 1024 30.24 853 25.19 21.1 70.1 31 3.7 38.6
13:35 1024 30.24 853 25.19 22 71.6 30 3.9 38.9
13:40 1023 30.21 853 25.19 22.7 72.9 30 4.7 40.4
13:45 1023 30.21 853 25.19 22.7 72.9 29 3.9 39
13:50 1023 30.21 853 25.19 22.7 72.9 28 3.5 38.4
13:55 1023 30.21 853 25.19 22.6 72.7 28 3.5 38.2
14:00 1023 30.21 852 25.16 22.2 71.9 31 4.3 39.8
14:05 1023 30.21 852 25.16 21.8 71.2 28 2.9 37.2
14:10 1023 30.21 852 25.16 23 73.4 29 4.2 39.6
14:15 1023 30.21 852 25.16 22.6 72.7 28 3.2 37.7
14:20 1023 30.21 852 25.16 22.6 72.7 25 1.9 35.4
14:25 1023 30.21 852 25.16 23 73.4 27 3 37.4
14:30 1023 30.21 852 25.16 23.7 74.7 26 3.5 38.2
14:35 1023 30.21 852 25.16 24.1 75.4 26 3.5 38.4
14:40 1023 30.21 852 25.16 24 75.2 26 3.4 38.1
14:45 1023 30.21 852 25.16 24 75.1 25 2.9 37.2
14:50 1023 30.21 852 25.16 24.1 75.3 25 3.1 37.5
14:55 1023 30.21 852 25.16 23.5 74.3 26 2.9 37.2
15:00 1023 30.21 852 25.16 23.4 74.1 26 2.8 37
15:05 1023 30.21 852 25.16 23.4 74.1 24 2 35.6
15:10 1023 30.21 852 25.16 23.6 74.5 25 2.5 36.5
15:15 1023 30.21 852 25.16 25 76.9 24 3 37.4
15:20 1022 30.18 852 25.16 24.9 76.9 23 2.6 36.8
15:25 1022 30.18 852 25.16 24.9 76.8 22 1.8 35.3
15:30 1022 30.18 852 25.16 23.9 75 25 2.8 37
15:35 1022 30.18 852 25.16 23.8 74.9 24 2 35.6
15:40 1022 30.18 852 25.16 24.9 76.7 22 1.7 35
15:45 1022 30.18 851 25.13 24.2 75.5 24 2.3 36.2
15:50 1022 30.18 851 25.13 24.5 76 24 2.8 37
15:55 1022 30.18 851 25.13 25.1 77.2 21 1.7 35.1
16:00 1022 30.18 851 25.13 25.6 78 23 2.9 37.2
16:05 1022 30.18 851 25.13 24.3 75.8 22 1.3 34.4
16:10 1022 30.18 851 25.13 24.4 76 24 2.9 37.2
16:15 1022 30.18 851 25.13 25.1 77.1 19 0.4 32.7
16:20 1022 30.18 851 25.13 25.2 77.4 20 0.6 33
16:25 1022 30.18 851 25.13 26.4 79.5 19 1.4 34.5
16:30 1022 30.18 851 25.13 25.8 78.4 21 1.9 35.4
16:35 1022 30.18 851 25.13 25.8 78.4 20 1.7 35
16:40 1022 30.18 851 25.13 25.2 77.3 20 1.1 34
16:45 1022 30.18 851 25.13 25.3 77.6 20 1.3 34.3
16:50 1022 30.18 851 25.13 25.2 77.4 21 1.6 34.9
16:55 1021 30.15 851 25.13 26 78.8 20 1.7 35
17:00 1021 30.15 851 25.13 26.3 79.4 20 1.9 35.4
17:05 1021 30.15 851 25.13 25.2 77.3 20 1 33.8
17:10 1021 30.15 851 25.13 25.5 77.9 20 1.3 34.3
17:15 1021 30.15 851 25.13 26.4 79.5 18 0.5 32.9
17:20 1021 30.15 850 25.1 26.3 79.4 20 1.6 34.8
17:25 1021 30.15 850 25.1 25.9 78.5 20 1.1 34
17:30 1021 30.15 850 25.1 25.1 77.2 20 1 33.9
17:35 1021 30.15 850 25.1 25.1 77.1 19 0.4 32.8
17:40 1021 30.15 850 25.1 25.2 77.4 19 0.2 32.3
17:45 1021 30.15 850 25.1 25.8 78.4 19 0.8 33.4
17:50 1021 30.15 850 25.1 26.3 79.3 18 0.7 33.3
17:55 1021 30.15 850 25.1 26.2 79.1 19 1.3 34.3
18:00 1021 30.15 850 25.1 26.3 79.4 20 1.7 35
18:05 1021 30.15 850 25.1 26.2 79.1 20 1.4 34.5
18:10 1021 30.15 850 25.1 25.9 78.6 20 1.5 34.8
18:15 1021 30.15 850 25.1 25.7 78.3 20 1.3 34.4
18:20 1021 30.15 850 25.1 25.1 77.1 22 2.4 36.3
18:25 1021 30.15 850 25.1 24.5 76.1 23 2.3 36.1
18:30 1021 30.15 850 25.1 24.4 75.8 22 1.2 34.2
18:35 1021 30.15 850 25.1 24.3 75.7 23 2.3 36.1
18:40 1021 30.15 850 25.1 24.2 75.5 21 0.9 33.6
18:45 1021 30.15 850 25.1 24.1 75.3 23 2 35.7
18:50 1021 30.15 850 25.1 24 75.2 23 1.8 35.3
18:55 1021 30.15 850 25.1 23.9 75 22 0.9 33.5
19:00 1021 30.15 850 25.1 23.9 74.9 23 1.7 35.1
19:05 1021 30.15 850 25.1 23.8 74.9 23 1.5 34.8
19:10 1021 30.15 850 25.1 23.8 74.8 22 1 33.8
19:15 1021 30.15 850 25.1 23.7 74.7 23 1.8 35.2
19:20 1020 30.12 850 25.1 23.6 74.4 27 3.9 39.1
19:25 1020 30.12 850 25.1 23.2 73.7 28 3.9 39
19:30 1020 30.12 850 25.1 22.9 73.3 28 3.8 38.8
19:35 1020 30.12 850 25.1 22.6 72.7 30 4.3 39.7
19:40 1020 30.12 850 25.1 22.2 72 34 5.7 42.2
19:45 1020 30.12 850 25.1 21.7 71 38 6.9 44.4
19:50 1020 30.12 850 25.1 21 69.7 41 7.4 45.3
19:55 1020 30.12 850 25.1 20.2 68.3 41 6.6 43.9
20:00 1020 30.12 850 25.1 19.6 67.4 44 7.3 45.1
20:05 1020 30.12 850 25.1 18.9 66.1 44 6.6 43.9
20:10 1020 30.12 850 25.1 18.6 65.4 47 7.2 45
20:15 1020 30.12 850 25.1 18.2 64.7 47 6.8 44.2
20:20 1020 30.12 850 25.1 17.8 64 47 6.4 43.6
20:25 1020 30.12 850 25.1 17.3 63.2 50 6.9 44.4
20:30 1020 30.12 850 25.1 16.9 62.4 50 6.4 43.5
20:35 1020 30.12 850 25.1 16.7 62 50 6.4 43.4
20:40 1020 30.12 850 25.1 16.5 61.7 46 5.1 41.1
20:45 1021 30.15 850 25.1 16.4 61.6 49 5.9 42.6
20:50 1021 30.15 850 25.1 16.2 61.1 47 5 41.1
20:55 1021 30.15 850 25.1 16 60.7 45 4.2 39.5
21:00 1021 30.15 850 25.1 16.2 61.1 46 4.7 40.5
21:05 1021 30.15 850 25.1 16.1 61.1 44 3.8 38.9
21:10 1021 30.15 850 25.1 16.5 61.6 43 4 39.3
21:15 1021 30.15 850 25.1 16.5 61.6 44 4.4 40
21:20 1021 30.15 850 25.1 16.2 61.1 45 4.4 39.8
21:25 1021 30.15 850 25.1 16 60.8 45 4.3 39.7
21:30 1021 30.15 850 25.1 16 60.7 45 4.2 39.6
21:35 1021 30.15 850 25.1 15.9 60.6 45 4.2 39.6
21:40 1021 30.15 850 25.1 15.9 60.6 46 4.3 39.8
21:45 1021 30.15 850 25.1 15.8 60.4 47 4.5 40.1
21:50 1021 30.15 850 25.1 15.5 60 47 4.2 39.6
21:55 1021 30.15 850 25.1 15.4 59.8 47 4.4 39.8
22:00 1021 30.15 850 25.1 15.3 59.5 48 4.3 39.8
22:05 1021 30.15 850 25.1 15.3 59.5 47 4 39.2
22:10 1021 30.15 850 25.1 15.5 60 46 4.1 39.3
22:15 1021 30.15 850 25.1 15.4 59.8 48 4.4 40
22:20 1021 30.15 850 25.1 15.4 59.7 46 4 39.2
22:25 1021 30.15 850 25.1 15.6 60.1 47 4.4 39.9
22:30 1021 30.15 850 25.1 15.5 59.9 45 3.7 38.7
22:35 1021 30.15 850 25.1 15.4 59.6 47 4.1 39.4
22:40 1021 30.15 850 25.1 15.1 59.2 47 4 39.2
22:45 1021 30.15 850 25.1 15.1 59.1 46 3.6 38.5
22:50 1021 30.15 850 25.1 15.1 59.2 45 3.5 38.2
22:55 1021 30.15 850 25.1 15.3 59.5 45 3.6 38.5
23:00 1021 30.15 850 25.1 15.3 59.5 44 3.3 37.9
23:05 1020 30.12 850 25.1 15.4 59.8 44 3.3 37.9
23:10 1020 30.12 850 25.1 15.5 59.9 45 3.7 38.6
23:15 1020 30.12 850 25.1 15.6 60.1 43 3.3 37.9
23:20 1020 30.12 850 25.1 15.5 59.9 44 3.5 38.3
23:25 1020 30.12 850 25.1 15.4 59.7 43 3 37.4
23:30 1021 30.15 850 25.1 15.4 59.6 46 4 39.2
23:35 1021 30.15 850 25.1 15.1 59.2 47 4.1 39.4
23:40 1021 30.15 850 25.1 15.4 59.6 42 2.7 36.9
23:45 1021 30.15 850 25.1 15.6 60.1 42 3 37.3
23:50 1021 30.15 850 25.1 15.5 59.9 42 2.6 36.7
23:55 1021 30.15 850 25.1 15.4 59.7 45 3.6 38.4
24:00 1021 30.15 850 25.1 15.2 59.4 45 3.4 38.1